sensor_id;sensor_type;location;lat;lon;timestamp;temperature;humidity
86008;SHT30;76587;41.936;25.550;2024-03-06T00:00:27;7.81;92.53
86008;SHT30;76587;41.936;25.550;2024-03-06T00:02:52;7.85;92.43
86008;SHT30;76587;41.936;25.550;2024-03-06T00:05:18;7.83;92.21
86008;SHT30;76587;41.936;25.550;2024-03-06T00:07:43;7.83;92.28
86008;SHT30;76587;41.936;25.550;2024-03-06T00:10:09;7.85;92.23
86008;SHT30;76587;41.936;25.550;2024-03-06T00:12:34;7.86;92.27
86008;SHT30;76587;41.936;25.550;2024-03-06T00:15:00;7.92;92.16
86008;SHT30;76587;41.936;25.550;2024-03-06T00:17:25;7.92;92.21
86008;SHT30;76587;41.936;25.550;2024-03-06T00:19:52;7.97;92.21
86008;SHT30;76587;41.936;25.550;2024-03-06T00:22:17;8.09;91.80
86008;SHT30;76587;41.936;25.550;2024-03-06T00:24:43;8.10;91.65
86008;SHT30;76587;41.936;25.550;2024-03-06T00:27:08;8.10;91.44
86008;SHT30;76587;41.936;25.550;2024-03-06T00:29:35;8.09;90.99
86008;SHT30;76587;41.936;25.550;2024-03-06T00:32:03;8.09;90.89
86008;SHT30;76587;41.936;25.550;2024-03-06T00:34:29;8.06;90.86
86008;SHT30;76587;41.936;25.550;2024-03-06T00:36:54;8.05;90.51
86008;SHT30;76587;41.936;25.550;2024-03-06T00:39:20;7.94;90.41
86008;SHT30;76587;41.936;25.550;2024-03-06T00:41:45;7.87;90.31
86008;SHT30;76587;41.936;25.550;2024-03-06T00:44:11;7.83;90.19
86008;SHT30;76587;41.936;25.550;2024-03-06T00:46:36;7.82;89.81
86008;SHT30;76587;41.936;25.550;2024-03-06T00:49:02;7.63;89.72
86008;SHT30;76587;41.936;25.550;2024-03-06T00:51:27;7.54;89.81
86008;SHT30;76587;41.936;25.550;2024-03-06T00:53:53;7.39;89.95
86008;SHT30;76587;41.936;25.550;2024-03-06T00:56:18;7.36;90.04
86008;SHT30;76587;41.936;25.550;2024-03-06T00:58:44;7.31;90.59
86008;SHT30;76587;41.936;25.550;2024-03-06T01:01:10;7.35;90.81
86008;SHT30;76587;41.936;25.550;2024-03-06T01:03:37;7.34;91.23
86008;SHT30;76587;41.936;25.550;2024-03-06T01:06:03;7.36;91.46
86008;SHT30;76587;41.936;25.550;2024-03-06T01:08:28;7.39;91.58
86008;SHT30;76587;41.936;25.550;2024-03-06T01:10:55;7.38;91.76
86008;SHT30;76587;41.936;25.550;2024-03-06T01:13:21;7.41;91.84
86008;SHT30;76587;41.936;25.550;2024-03-06T01:15:46;7.44;91.84
86008;SHT30;76587;41.936;25.550;2024-03-06T01:18:12;7.47;91.85
86008;SHT30;76587;41.936;25.550;2024-03-06T01:20:37;7.47;91.97
86008;SHT30;76587;41.936;25.550;2024-03-06T01:23:04;7.56;92.13
86008;SHT30;76587;41.936;25.550;2024-03-06T01:25:30;7.65;92.13
86008;SHT30;76587;41.936;25.550;2024-03-06T01:27:55;7.65;92.19
86008;SHT30;76587;41.936;25.550;2024-03-06T01:30:20;7.72;92.23
86008;SHT30;76587;41.936;25.550;2024-03-06T01:32:46;7.75;92.13
86008;SHT30;76587;41.936;25.550;2024-03-06T01:35:11;7.82;91.97
86008;SHT30;76587;41.936;25.550;2024-03-06T01:37:37;7.78;91.82
86008;SHT30;76587;41.936;25.550;2024-03-06T01:40:03;7.78;91.73
86008;SHT30;76587;41.936;25.550;2024-03-06T01:42:30;7.75;91.45
86008;SHT30;76587;41.936;25.550;2024-03-06T01:44:55;7.69;91.30
86008;SHT30;76587;41.936;25.550;2024-03-06T01:47:20;7.65;91.28
86008;SHT30;76587;41.936;25.550;2024-03-06T01:49:46;7.61;91.19
86008;SHT30;76587;41.936;25.550;2024-03-06T01:52:14;7.54;91.27
86008;SHT30;76587;41.936;25.550;2024-03-06T01:54:41;7.55;91.08
86008;SHT30;76587;41.936;25.550;2024-03-06T01:57:08;7.55;91.18
86008;SHT30;76587;41.936;25.550;2024-03-06T01:59:34;7.59;91.27
86008;SHT30;76587;41.936;25.550;2024-03-06T02:02:00;7.56;91.45
86008;SHT30;76587;41.936;25.550;2024-03-06T02:04:26;7.62;91.42
86008;SHT30;76587;41.936;25.550;2024-03-06T02:06:53;7.61;91.38
86008;SHT30;76587;41.936;25.550;2024-03-06T02:09:19;7.54;91.54
86008;SHT30;76587;41.936;25.550;2024-03-06T02:11:45;7.49;91.65
86008;SHT30;76587;41.936;25.550;2024-03-06T02:14:10;7.47;91.71
86008;SHT30;76587;41.936;25.550;2024-03-06T02:16:36;7.44;91.73
86008;SHT30;76587;41.936;25.550;2024-03-06T02:19:04;7.44;91.68
86008;SHT30;76587;41.936;25.550;2024-03-06T02:21:29;7.45;91.54
86008;SHT30;76587;41.936;25.550;2024-03-06T02:23:55;7.44;91.52
86008;SHT30;76587;41.936;25.550;2024-03-06T02:26:21;7.39;91.56
86008;SHT30;76587;41.936;25.550;2024-03-06T02:28:52;7.35;91.58
86008;SHT30;76587;41.936;25.550;2024-03-06T02:31:18;7.31;91.60
86008;SHT30;76587;41.936;25.550;2024-03-06T02:33:46;7.32;91.54
86008;SHT30;76587;41.936;25.550;2024-03-06T02:36:18;7.28;91.52
86008;SHT30;76587;41.936;25.550;2024-03-06T02:38:44;7.28;91.61
86008;SHT30;76587;41.936;25.550;2024-03-06T02:41:10;7.31;91.63
86008;SHT30;76587;41.936;25.550;2024-03-06T02:43:37;7.27;91.68
86008;SHT30;76587;41.936;25.550;2024-03-06T02:46:03;7.29;91.72
86008;SHT30;76587;41.936;25.550;2024-03-06T02:48:29;7.34;91.75
86008;SHT30;76587;41.936;25.550;2024-03-06T02:50:54;7.35;91.81
86008;SHT30;76587;41.936;25.550;2024-03-06T02:53:20;7.39;91.93
86008;SHT30;76587;41.936;25.550;2024-03-06T02:55:46;7.39;91.89
86008;SHT30;76587;41.936;25.550;2024-03-06T02:58:11;7.35;91.76
86008;SHT30;76587;41.936;25.550;2024-03-06T03:00:39;7.29;91.67
86008;SHT30;76587;41.936;25.550;2024-03-06T03:03:05;7.25;91.48
86008;SHT30;76587;41.936;25.550;2024-03-06T03:05:30;7.19;91.49
86008;SHT30;76587;41.936;25.550;2024-03-06T03:07:56;7.15;91.57
86008;SHT30;76587;41.936;25.550;2024-03-06T03:10:21;7.14;91.71
86008;SHT30;76587;41.936;25.550;2024-03-06T03:12:46;7.15;91.80
86008;SHT30;76587;41.936;25.550;2024-03-06T03:15:12;7.17;91.87
86008;SHT30;76587;41.936;25.550;2024-03-06T03:17:37;7.24;91.90
86008;SHT30;76587;41.936;25.550;2024-03-06T03:20:03;7.21;91.92
86008;SHT30;76587;41.936;25.550;2024-03-06T03:22:41;7.32;91.91
86008;SHT30;76587;41.936;25.550;2024-03-06T03:25:10;7.42;91.71
86008;SHT30;76587;41.936;25.550;2024-03-06T03:27:37;7.42;91.67
86008;SHT30;76587;41.936;25.550;2024-03-06T03:30:04;7.41;91.95
86008;SHT30;76587;41.936;25.550;2024-03-06T03:32:30;7.42;91.98
86008;SHT30;76587;41.936;25.550;2024-03-06T03:34:55;7.42;92.09
86008;SHT30;76587;41.936;25.550;2024-03-06T03:37:21;7.47;92.25
86008;SHT30;76587;41.936;25.550;2024-03-06T03:39:46;7.49;92.21
86008;SHT30;76587;41.936;25.550;2024-03-06T03:42:12;7.51;92.13
86008;SHT30;76587;41.936;25.550;2024-03-06T03:44:37;7.48;92.20
86008;SHT30;76587;41.936;25.550;2024-03-06T03:47:03;7.48;92.39
86008;SHT30;76587;41.936;25.550;2024-03-06T03:49:28;7.47;92.59
86008;SHT30;76587;41.936;25.550;2024-03-06T03:51:53;7.52;92.61
86008;SHT30;76587;41.936;25.550;2024-03-06T03:54:19;7.71;92.18
86008;SHT30;76587;41.936;25.550;2024-03-06T03:56:44;7.78;91.91
86008;SHT30;76587;41.936;25.550;2024-03-06T03:59:10;7.82;91.83
86008;SHT30;76587;41.936;25.550;2024-03-06T04:01:35;7.79;91.78
86008;SHT30;76587;41.936;25.550;2024-03-06T04:04:01;7.83;91.58
86008;SHT30;76587;41.936;25.550;2024-03-06T04:06:26;7.89;91.21
86008;SHT30;76587;41.936;25.550;2024-03-06T04:08:52;7.86;91.35
86008;SHT30;76587;41.936;25.550;2024-03-06T04:11:17;7.83;91.41
86008;SHT30;76587;41.936;25.550;2024-03-06T04:13:43;7.82;91.43
86008;SHT30;76587;41.936;25.550;2024-03-06T04:16:08;7.79;91.46
86008;SHT30;76587;41.936;25.550;2024-03-06T04:18:34;7.78;91.44
86008;SHT30;76587;41.936;25.550;2024-03-06T04:21:06;7.78;91.36
86008;SHT30;76587;41.936;25.550;2024-03-06T04:23:32;7.69;91.31
86008;SHT30;76587;41.936;25.550;2024-03-06T04:25:58;7.66;91.22
86008;SHT30;76587;41.936;25.550;2024-03-06T04:28:24;7.61;91.23
86008;SHT30;76587;41.936;25.550;2024-03-06T04:30:49;7.59;91.24
86008;SHT30;76587;41.936;25.550;2024-03-06T04:33:15;7.56;91.26
86008;SHT30;76587;41.936;25.550;2024-03-06T04:35:41;7.63;91.14
86008;SHT30;76587;41.936;25.550;2024-03-06T04:38:06;7.75;91.08
86008;SHT30;76587;41.936;25.550;2024-03-06T04:40:32;7.87;90.60
86008;SHT30;76587;41.936;25.550;2024-03-06T04:42:59;7.82;90.63
86008;SHT30;76587;41.936;25.550;2024-03-06T04:45:25;7.82;90.46
86008;SHT30;76587;41.936;25.550;2024-03-06T04:47:51;7.72;90.66
86008;SHT30;76587;41.936;25.550;2024-03-06T04:50:16;7.76;90.88
86008;SHT30;76587;41.936;25.550;2024-03-06T04:52:43;7.78;91.03
86008;SHT30;76587;41.936;25.550;2024-03-06T04:55:10;7.82;91.09
86008;SHT30;76587;41.936;25.550;2024-03-06T04:57:37;7.89;91.14
86008;SHT30;76587;41.936;25.550;2024-03-06T05:00:02;7.92;91.02
86008;SHT30;76587;41.936;25.550;2024-03-06T05:02:31;7.86;91.19
86008;SHT30;76587;41.936;25.550;2024-03-06T05:04:59;7.90;91.23
86008;SHT30;76587;41.936;25.550;2024-03-06T05:07:27;7.94;91.26
86008;SHT30;76587;41.936;25.550;2024-03-06T05:09:52;7.97;91.28
86008;SHT30;76587;41.936;25.550;2024-03-06T05:12:18;8.06;91.12
86008;SHT30;76587;41.936;25.550;2024-03-06T05:14:43;8.12;91.02
86008;SHT30;76587;41.936;25.550;2024-03-06T05:17:08;8.16;90.88
86008;SHT30;76587;41.936;25.550;2024-03-06T05:19:36;8.22;90.83
86008;SHT30;76587;41.936;25.550;2024-03-06T05:22:01;8.27;90.61
86008;SHT30;76587;41.936;25.550;2024-03-06T05:24:27;8.26;90.52
86008;SHT30;76587;41.936;25.550;2024-03-06T05:26:52;8.27;90.50
86008;SHT30;76587;41.936;25.550;2024-03-06T05:29:18;8.36;90.35
86008;SHT30;76587;41.936;25.550;2024-03-06T05:31:43;8.36;90.11
86008;SHT30;76587;41.936;25.550;2024-03-06T05:34:09;8.41;90.03
86008;SHT30;76587;41.936;25.550;2024-03-06T05:36:38;8.47;89.87
86008;SHT30;76587;41.936;25.550;2024-03-06T05:39:03;8.50;89.61
86008;SHT30;76587;41.936;25.550;2024-03-06T05:41:33;8.57;89.04
86008;SHT30;76587;41.936;25.550;2024-03-06T05:43:58;8.58;89.04
86008;SHT30;76587;41.936;25.550;2024-03-06T05:46:27;8.58;89.20
86008;SHT30;76587;41.936;25.550;2024-03-06T05:48:52;8.58;89.21
86008;SHT30;76587;41.936;25.550;2024-03-06T05:51:28;8.70;88.89
86008;SHT30;76587;41.936;25.550;2024-03-06T05:53:54;8.65;88.87
86008;SHT30;76587;41.936;25.550;2024-03-06T05:56:19;8.63;88.90
86008;SHT30;76587;41.936;25.550;2024-03-06T05:58:48;8.70;88.87
86008;SHT30;76587;41.936;25.550;2024-03-06T06:01:17;8.68;88.98
86008;SHT30;76587;41.936;25.550;2024-03-06T06:03:47;8.74;88.98
86008;SHT30;76587;41.936;25.550;2024-03-06T06:06:17;8.82;89.03
86008;SHT30;76587;41.936;25.550;2024-03-06T06:08:43;9.00;89.17
86008;SHT30;76587;41.936;25.550;2024-03-06T06:11:10;9.25;89.06
86008;SHT30;76587;41.936;25.550;2024-03-06T06:13:36;9.32;89.11
86008;SHT30;76587;41.936;25.550;2024-03-06T06:16:04;9.50;88.89
86008;SHT30;76587;41.936;25.550;2024-03-06T06:18:33;9.99;88.57
86008;SHT30;76587;41.936;25.550;2024-03-06T06:20:59;10.61;85.54
86008;SHT30;76587;41.936;25.550;2024-03-06T06:23:24;11.26;84.88
86008;SHT30;76587;41.936;25.550;2024-03-06T06:25:51;11.76;82.62
86008;SHT30;76587;41.936;25.550;2024-03-06T06:28:19;11.85;80.95
86008;SHT30;76587;41.936;25.550;2024-03-06T06:30:48;11.94;80.59
86008;SHT30;76587;41.936;25.550;2024-03-06T06:33:13;11.86;77.50
86008;SHT30;76587;41.936;25.550;2024-03-06T06:35:39;11.75;78.67
86008;SHT30;76587;41.936;25.550;2024-03-06T06:38:08;11.69;78.98
86008;SHT30;76587;41.936;25.550;2024-03-06T06:40:33;11.80;78.96
86008;SHT30;76587;41.936;25.550;2024-03-06T06:42:59;11.94;78.34
86008;SHT30;76587;41.936;25.550;2024-03-06T06:45:25;11.76;76.82
86008;SHT30;76587;41.936;25.550;2024-03-06T06:47:51;11.72;78.62
86008;SHT30;76587;41.936;25.550;2024-03-06T06:50:17;12.08;78.66
86008;SHT30;76587;41.936;25.550;2024-03-06T06:52:42;13.26;75.95
86008;SHT30;76587;41.936;25.550;2024-03-06T06:55:08;14.03;73.42
86008;SHT30;76587;41.936;25.550;2024-03-06T06:57:37;14.65;71.39
86008;SHT30;76587;41.936;25.550;2024-03-06T07:00:04;15.43;66.41
86008;SHT30;76587;41.936;25.550;2024-03-06T07:02:42;16.07;65.38
86008;SHT30;76587;41.936;25.550;2024-03-06T07:05:08;17.18;61.05
86008;SHT30;76587;41.936;25.550;2024-03-06T07:07:37;18.14;58.27
86008;SHT30;76587;41.936;25.550;2024-03-06T07:10:04;18.99;52.35
86008;SHT30;76587;41.936;25.550;2024-03-06T07:12:30;19.87;49.82
86008;SHT30;76587;41.936;25.550;2024-03-06T07:14:56;20.72;49.02
86008;SHT30;76587;41.936;25.550;2024-03-06T07:17:22;21.02;45.50
86008;SHT30;76587;41.936;25.550;2024-03-06T07:19:48;21.02;46.36
86008;SHT30;76587;41.936;25.550;2024-03-06T07:22:13;20.72;46.61
86008;SHT30;76587;41.936;25.550;2024-03-06T07:24:39;20.18;47.66
86008;SHT30;76587;41.936;25.550;2024-03-06T07:27:04;19.71;48.96
86008;SHT30;76587;41.936;25.550;2024-03-06T07:29:30;19.66;49.39
86008;SHT30;76587;41.936;25.550;2024-03-06T07:31:55;19.49;48.69
86008;SHT30;76587;41.936;25.550;2024-03-06T07:34:21;20.06;48.94
86008;SHT30;76587;41.936;25.550;2024-03-06T07:36:47;20.95;46.70
86008;SHT30;76587;41.936;25.550;2024-03-06T07:39:15;21.45;43.34
86008;SHT30;76587;41.936;25.550;2024-03-06T07:41:40;21.96;42.55
86008;SHT30;76587;41.936;25.550;2024-03-06T07:44:06;22.57;41.98
86008;SHT30;76587;41.936;25.550;2024-03-06T07:46:31;23.23;40.96
86008;SHT30;76587;41.936;25.550;2024-03-06T07:48:57;23.83;39.22
86008;SHT30;76587;41.936;25.550;2024-03-06T07:51:23;23.67;39.90
86008;SHT30;76587;41.936;25.550;2024-03-06T07:53:48;23.35;40.23
86008;SHT30;76587;41.936;25.550;2024-03-06T07:56:15;23.13;40.93
86008;SHT30;76587;41.936;25.550;2024-03-06T07:58:41;22.79;41.82
86008;SHT30;76587;41.936;25.550;2024-03-06T08:01:06;22.35;42.09
86008;SHT30;76587;41.936;25.550;2024-03-06T08:03:33;21.40;44.34
86008;SHT30;76587;41.936;25.550;2024-03-06T08:05:59;21.59;43.44
86008;SHT30;76587;41.936;25.550;2024-03-06T08:08:25;21.62;43.29
86008;SHT30;76587;41.936;25.550;2024-03-06T08:10:50;21.66;43.74
86008;SHT30;76587;41.936;25.550;2024-03-06T08:13:16;22.28;42.92
86008;SHT30;76587;41.936;25.550;2024-03-06T08:15:41;22.45;41.75
86008;SHT30;76587;41.936;25.550;2024-03-06T08:18:09;23.03;40.30
86008;SHT30;76587;41.936;25.550;2024-03-06T08:20:35;23.15;40.63
86008;SHT30;76587;41.936;25.550;2024-03-06T08:23:00;23.12;40.06
86008;SHT30;76587;41.936;25.550;2024-03-06T08:25:26;23.29;40.46
86008;SHT30;76587;41.936;25.550;2024-03-06T08:27:51;22.84;41.05
86008;SHT30;76587;41.936;25.550;2024-03-06T08:30:16;22.84;40.51
86008;SHT30;76587;41.936;25.550;2024-03-06T08:32:42;22.91;39.84
86008;SHT30;76587;41.936;25.550;2024-03-06T08:35:11;22.38;40.90
86008;SHT30;76587;41.936;25.550;2024-03-06T08:37:40;22.11;40.96
86008;SHT30;76587;41.936;25.550;2024-03-06T08:40:09;21.90;41.76
86008;SHT30;76587;41.936;25.550;2024-03-06T08:42:45;22.58;40.11
86008;SHT30;76587;41.936;25.550;2024-03-06T08:45:13;23.96;38.30
86008;SHT30;76587;41.936;25.550;2024-03-06T08:47:40;25.26;36.03
86008;SHT30;76587;41.936;25.550;2024-03-06T08:50:05;25.73;35.42
86008;SHT30;76587;41.936;25.550;2024-03-06T08:52:33;26.03;34.56
86008;SHT30;76587;41.936;25.550;2024-03-06T08:55:00;26.55;33.06
86008;SHT30;76587;41.936;25.550;2024-03-06T08:57:25;26.20;33.63
86008;SHT30;76587;41.936;25.550;2024-03-06T08:59:54;25.69;35.12
86008;SHT30;76587;41.936;25.550;2024-03-06T09:02:19;24.63;35.71
86008;SHT30;76587;41.936;25.550;2024-03-06T09:04:46;23.53;36.59
86008;SHT30;76587;41.936;25.550;2024-03-06T09:07:12;22.67;38.00
86008;SHT30;76587;41.936;25.550;2024-03-06T09:09:37;21.83;41.04
86008;SHT30;76587;41.936;25.550;2024-03-06T09:12:07;21.56;40.76
86008;SHT30;76587;41.936;25.550;2024-03-06T09:14:36;20.82;42.89
86008;SHT30;76587;41.936;25.550;2024-03-06T09:17:02;20.42;43.88
86008;SHT30;76587;41.936;25.550;2024-03-06T09:19:28;20.11;45.56
86008;SHT30;76587;41.936;25.550;2024-03-06T09:21:54;19.83;47.22
86008;SHT30;76587;41.936;25.550;2024-03-06T09:24:23;19.76;46.82
86008;SHT30;76587;41.936;25.550;2024-03-06T09:26:50;19.52;46.89
86008;SHT30;76587;41.936;25.550;2024-03-06T09:29:16;20.06;45.62
86008;SHT30;76587;41.936;25.550;2024-03-06T09:31:42;20.16;45.63
86008;SHT30;76587;41.936;25.550;2024-03-06T09:34:08;20.10;45.69
86008;SHT30;76587;41.936;25.550;2024-03-06T09:36:37;19.76;47.68
86008;SHT30;76587;41.936;25.550;2024-03-06T09:39:02;19.76;47.58
86008;SHT30;76587;41.936;25.550;2024-03-06T09:41:31;19.90;46.40
86008;SHT30;76587;41.936;25.550;2024-03-06T09:43:58;19.65;46.56
86008;SHT30;76587;41.936;25.550;2024-03-06T09:46:23;19.59;45.25
86008;SHT30;76587;41.936;25.550;2024-03-06T09:48:51;19.57;44.61
86008;SHT30;76587;41.936;25.550;2024-03-06T09:51:16;19.33;43.47
86008;SHT30;76587;41.936;25.550;2024-03-06T09:53:42;19.15;45.00
86008;SHT30;76587;41.936;25.550;2024-03-06T09:56:11;19.19;45.63
86008;SHT30;76587;41.936;25.550;2024-03-06T09:58:36;19.27;42.50
86008;SHT30;76587;41.936;25.550;2024-03-06T10:01:03;19.43;43.05
86008;SHT30;76587;41.936;25.550;2024-03-06T10:03:32;19.57;43.87
86008;SHT30;76587;41.936;25.550;2024-03-06T10:05:58;19.74;41.47
86008;SHT30;76587;41.936;25.550;2024-03-06T10:08:23;20.00;41.87
86008;SHT30;76587;41.936;25.550;2024-03-06T10:10:52;20.14;41.03
86008;SHT30;76587;41.936;25.550;2024-03-06T10:13:18;20.04;39.77
86008;SHT30;76587;41.936;25.550;2024-03-06T10:16:05;20.47;38.67
86008;SHT30;76587;41.936;25.550;2024-03-06T10:18:35;20.81;37.69
86008;SHT30;76587;41.936;25.550;2024-03-06T10:21:01;20.91;37.37
86008;SHT30;76587;41.936;25.550;2024-03-06T10:23:27;20.62;39.95
86008;SHT30;76587;41.936;25.550;2024-03-06T10:25:55;20.55;41.21
86008;SHT30;76587;41.936;25.550;2024-03-06T10:28:22;20.74;40.45
86008;SHT30;76587;41.936;25.550;2024-03-06T10:30:48;20.78;40.35
86008;SHT30;76587;41.936;25.550;2024-03-06T10:33:16;20.79;40.34
86008;SHT30;76587;41.936;25.550;2024-03-06T10:35:43;21.02;40.29
86008;SHT30;76587;41.936;25.550;2024-03-06T10:38:10;21.94;39.20
86008;SHT30;76587;41.936;25.550;2024-03-06T10:40:42;22.48;37.32
86008;SHT30;76587;41.936;25.550;2024-03-06T10:43:08;22.08;37.53
86008;SHT30;76587;41.936;25.550;2024-03-06T10:45:46;22.01;38.07
86008;SHT30;76587;41.936;25.550;2024-03-06T10:48:17;21.79;38.62
86008;SHT30;76587;41.936;25.550;2024-03-06T10:50:45;21.76;38.66
86008;SHT30;76587;41.936;25.550;2024-03-06T10:53:12;21.33;40.11
86008;SHT30;76587;41.936;25.550;2024-03-06T10:55:38;21.12;40.98
86008;SHT30;76587;41.936;25.550;2024-03-06T10:58:07;20.59;41.77
86008;SHT30;76587;41.936;25.550;2024-03-06T11:00:54;20.74;42.07
86008;SHT30;76587;41.936;25.550;2024-03-06T11:03:23;20.59;42.92
86008;SHT30;76587;41.936;25.550;2024-03-06T11:05:51;21.42;40.98
86008;SHT30;76587;41.936;25.550;2024-03-06T11:08:17;21.23;40.93
86008;SHT30;76587;41.936;25.550;2024-03-06T11:10:43;21.96;38.08
86008;SHT30;76587;41.936;25.550;2024-03-06T11:13:21;21.74;38.33
86008;SHT30;76587;41.936;25.550;2024-03-06T11:15:52;21.90;38.04
86008;SHT30;76587;41.936;25.550;2024-03-06T11:20:59;22.55;37.35
86008;SHT30;76587;41.936;25.550;2024-03-06T11:23:25;22.61;36.47
86008;SHT30;76587;41.936;25.550;2024-03-06T11:28:36;22.05;36.52
86008;SHT30;76587;41.936;25.550;2024-03-06T11:31:07;21.69;37.55
86008;SHT30;76587;41.936;25.550;2024-03-06T11:33:46;21.54;38.11
86008;SHT30;76587;41.936;25.550;2024-03-06T11:36:28;20.22;40.20
86008;SHT30;76587;41.936;25.550;2024-03-06T11:39:07;19.59;42.45
86008;SHT30;76587;41.936;25.550;2024-03-06T11:44:07;18.96;44.74
86008;SHT30;76587;41.936;25.550;2024-03-06T11:46:43;18.79;41.62
86008;SHT30;76587;41.936;25.550;2024-03-06T11:49:19;18.43;42.57
86008;SHT30;76587;41.936;25.550;2024-03-06T11:51:57;18.07;44.92
86008;SHT30;76587;41.936;25.550;2024-03-06T11:54:26;18.05;45.81
86008;SHT30;76587;41.936;25.550;2024-03-06T11:56:54;18.05;45.92
86008;SHT30;76587;41.936;25.550;2024-03-06T11:59:24;18.24;45.24
86008;SHT30;76587;41.936;25.550;2024-03-06T12:01:57;18.41;46.08
86008;SHT30;76587;41.936;25.550;2024-03-06T12:04:24;18.47;43.17
86008;SHT30;76587;41.936;25.550;2024-03-06T12:06:49;18.41;42.27
86008;SHT30;76587;41.936;25.550;2024-03-06T12:09:15;18.45;42.79
86008;SHT30;76587;41.936;25.550;2024-03-06T12:11:41;18.14;43.28
86008;SHT30;76587;41.936;25.550;2024-03-06T12:14:14;17.86;42.37
86008;SHT30;76587;41.936;25.550;2024-03-06T12:16:42;17.57;43.89
86008;SHT30;76587;41.936;25.550;2024-03-06T12:19:07;17.63;44.86
86008;SHT30;76587;41.936;25.550;2024-03-06T12:21:34;17.54;44.88
86008;SHT30;76587;41.936;25.550;2024-03-06T12:24:08;17.47;45.06
86008;SHT30;76587;41.936;25.550;2024-03-06T12:26:34;17.50;44.32
86008;SHT30;76587;41.936;25.550;2024-03-06T12:29:09;17.33;45.24
86008;SHT30;76587;41.936;25.550;2024-03-06T12:31:37;17.25;45.58
86008;SHT30;76587;41.936;25.550;2024-03-06T12:34:03;17.18;45.32
86008;SHT30;76587;41.936;25.550;2024-03-06T12:36:30;17.08;46.89
86008;SHT30;76587;41.936;25.550;2024-03-06T12:38:59;17.19;47.10
86008;SHT30;76587;41.936;25.550;2024-03-06T12:41:25;17.15;46.99
86008;SHT30;76587;41.936;25.550;2024-03-06T12:43:52;17.09;46.76
86008;SHT30;76587;41.936;25.550;2024-03-06T12:46:18;17.30;48.13
86008;SHT30;76587;41.936;25.550;2024-03-06T12:48:44;17.49;46.27
86008;SHT30;76587;41.936;25.550;2024-03-06T12:51:10;17.59;45.70
86008;SHT30;76587;41.936;25.550;2024-03-06T12:53:35;17.56;45.50
86008;SHT30;76587;41.936;25.550;2024-03-06T12:56:01;17.57;45.25
86008;SHT30;76587;41.936;25.550;2024-03-06T12:58:27;17.67;45.81
86008;SHT30;76587;41.936;25.550;2024-03-06T13:00:52;17.73;47.67
86008;SHT30;76587;41.936;25.550;2024-03-06T13:03:19;17.83;46.27
86008;SHT30;76587;41.936;25.550;2024-03-06T13:05:44;17.70;46.69
86008;SHT30;76587;41.936;25.550;2024-03-06T13:08:12;17.20;47.13
86008;SHT30;76587;41.936;25.550;2024-03-06T13:10:41;16.72;49.02
86008;SHT30;76587;41.936;25.550;2024-03-06T13:13:07;16.32;50.50
86008;SHT30;76587;41.936;25.550;2024-03-06T13:15:33;16.07;51.20
86008;SHT30;76587;41.936;25.550;2024-03-06T13:18:02;15.86;51.51
86008;SHT30;76587;41.936;25.550;2024-03-06T13:20:32;15.53;51.83
86008;SHT30;76587;41.936;25.550;2024-03-06T13:22:57;15.32;52.12
86008;SHT30;76587;41.936;25.550;2024-03-06T13:25:23;15.08;52.92
86008;SHT30;76587;41.936;25.550;2024-03-06T13:27:49;15.05;52.73
86008;SHT30;76587;41.936;25.550;2024-03-06T13:30:16;14.84;53.12
86008;SHT30;76587;41.936;25.550;2024-03-06T13:32:41;14.69;54.17
86008;SHT30;76587;41.936;25.550;2024-03-06T13:35:08;14.61;54.71
86008;SHT30;76587;41.936;25.550;2024-03-06T13:37:37;14.54;55.00
86008;SHT30;76587;41.936;25.550;2024-03-06T13:40:03;14.42;54.80
86008;SHT30;76587;41.936;25.550;2024-03-06T13:42:32;14.33;54.79
86008;SHT30;76587;41.936;25.550;2024-03-06T13:44:58;14.27;55.53
86008;SHT30;76587;41.936;25.550;2024-03-06T13:47:23;14.38;55.26
86008;SHT30;76587;41.936;25.550;2024-03-06T13:49:50;14.48;55.53
86008;SHT30;76587;41.936;25.550;2024-03-06T13:52:15;14.47;55.42
86008;SHT30;76587;41.936;25.550;2024-03-06T13:54:45;14.58;55.07
86008;SHT30;76587;41.936;25.550;2024-03-06T13:57:11;14.69;53.80
86008;SHT30;76587;41.936;25.550;2024-03-06T13:59:37;14.82;53.23
86008;SHT30;76587;41.936;25.550;2024-03-06T14:02:06;14.87;53.52
86008;SHT30;76587;41.936;25.550;2024-03-06T14:04:32;14.96;53.47
86008;SHT30;76587;41.936;25.550;2024-03-06T14:06:57;15.05;52.86
86008;SHT30;76587;41.936;25.550;2024-03-06T14:09:24;15.09;53.00
86008;SHT30;76587;41.936;25.550;2024-03-06T14:11:51;15.25;52.37
86008;SHT30;76587;41.936;25.550;2024-03-06T14:14:17;15.32;52.05
86008;SHT30;76587;41.936;25.550;2024-03-06T14:16:43;15.36;52.33
86008;SHT30;76587;41.936;25.550;2024-03-06T14:19:09;15.55;52.67
86008;SHT30;76587;41.936;25.550;2024-03-06T14:21:36;15.57;52.37
86008;SHT30;76587;41.936;25.550;2024-03-06T14:24:01;15.52;52.80
86008;SHT30;76587;41.936;25.550;2024-03-06T14:26:34;15.45;52.52
86008;SHT30;76587;41.936;25.550;2024-03-06T14:29:03;15.25;51.68
86008;SHT30;76587;41.936;25.550;2024-03-06T14:31:31;15.01;52.39
86008;SHT30;76587;41.936;25.550;2024-03-06T14:33:57;14.89;52.82
86008;SHT30;76587;41.936;25.550;2024-03-06T14:36:22;14.79;52.91
86008;SHT30;76587;41.936;25.550;2024-03-06T14:38:50;14.68;53.58
86008;SHT30;76587;41.936;25.550;2024-03-06T14:41:18;14.63;53.11
86008;SHT30;76587;41.936;25.550;2024-03-06T14:43:44;14.63;53.35
86008;SHT30;76587;41.936;25.550;2024-03-06T14:46:10;14.61;53.46
86008;SHT30;76587;41.936;25.550;2024-03-06T14:48:36;14.51;53.69
86008;SHT30;76587;41.936;25.550;2024-03-06T14:51:01;14.41;53.41
86008;SHT30;76587;41.936;25.550;2024-03-06T14:53:27;14.24;53.23
86008;SHT30;76587;41.936;25.550;2024-03-06T14:55:52;14.14;53.79
86008;SHT30;76587;41.936;25.550;2024-03-06T14:58:18;14.04;54.45
86008;SHT30;76587;41.936;25.550;2024-03-06T15:00:44;14.00;55.35
86008;SHT30;76587;41.936;25.550;2024-03-06T15:03:09;14.03;55.79
86008;SHT30;76587;41.936;25.550;2024-03-06T15:05:36;14.01;55.91
86008;SHT30;76587;41.936;25.550;2024-03-06T15:08:01;14.03;55.34
86008;SHT30;76587;41.936;25.550;2024-03-06T15:10:29;13.91;55.60
86008;SHT30;76587;41.936;25.550;2024-03-06T15:12:57;13.81;55.53
86008;SHT30;76587;41.936;25.550;2024-03-06T15:15:22;13.70;55.36
86008;SHT30;76587;41.936;25.550;2024-03-06T15:17:48;13.67;55.84
86008;SHT30;76587;41.936;25.550;2024-03-06T15:20:13;13.53;55.91
86008;SHT30;76587;41.936;25.550;2024-03-06T15:22:39;13.49;56.51
86008;SHT30;76587;41.936;25.550;2024-03-06T15:25:09;13.48;56.01
86008;SHT30;76587;41.936;25.550;2024-03-06T15:27:35;13.45;56.78